createdAt,value
2018-05-29T00:00:14.041Z,6.37
2018-05-29T00:02:42.284Z,6.70
2018-05-29T00:05:11.324Z,6.10
2018-05-29T00:07:39.582Z,6.57
2018-05-29T00:10:07.845Z,5.70
2018-05-29T00:12:36.182Z,6.20
2018-05-29T00:15:04.520Z,5.77
2018-05-29T00:17:32.831Z,5.63
2018-05-29T00:20:01.147Z,5.93
2018-05-29T00:22:29.404Z,6.77
2018-05-29T00:24:57.677Z,6.70
2018-05-29T00:27:25.961Z,6.60
2018-05-29T00:29:54.203Z,6.10
2018-05-29T00:32:23.216Z,6.43
2018-05-29T00:34:51.487Z,7.17
2018-05-29T00:37:19.750Z,8.20
2018-05-29T00:39:47.988Z,6.50
2018-05-29T00:42:16.265Z,7.23
2018-05-29T00:44:44.520Z,6.80
2018-05-29T00:47:13.541Z,6.10
2018-05-29T00:49:41.808Z,6.87
2018-05-29T00:52:10.164Z,6.13
2018-05-29T00:54:38.456Z,7.28
2018-05-29T00:57:06.807Z,6.37
2018-05-29T00:59:35.970Z,6.37
2018-05-29T01:02:04.300Z,6.83
2018-05-29T01:04:32.639Z,6.33
2018-05-29T01:07:00.943Z,5.97
2018-05-29T01:09:30.031Z,7.60
2018-05-29T01:11:59.065Z,6.77
2018-05-29T01:14:27.331Z,7.50
2018-05-29T01:16:56.340Z,6.93
2018-05-29T01:19:24.624Z,6.00
2018-05-29T01:21:52.864Z,7.17
2018-05-29T01:24:21.894Z,7.00
2018-05-29T01:26:50.150Z,6.60
2018-05-29T01:29:18.417Z,6.30
2018-05-29T01:31:47.430Z,7.17
2018-05-29T01:34:15.699Z,8.00
2018-05-29T01:36:47.550Z,7.13
2018-05-29T01:39:15.824Z,6.30
2018-05-29T01:41:44.073Z,6.70
2018-05-29T01:44:12.324Z,7.70
2018-05-29T01:46:40.593Z,8.10
2018-05-29T01:49:08.847Z,6.90
2018-05-29T01:51:37.109Z,7.57
2018-05-29T01:54:05.379Z,8.23
2018-05-29T01:56:34.389Z,8.33
2018-05-29T01:59:02.645Z,7.30
2018-05-29T02:01:31.673Z,6.60
2018-05-29T02:03:59.924Z,7.00
2018-05-29T02:06:28.170Z,7.87
2018-05-29T02:08:56.432Z,6.97
2018-05-29T02:11:24.689Z,7.40
2018-05-29T02:13:52.938Z,7.90
2018-05-29T02:16:21.210Z,8.20
2018-05-29T02:18:49.476Z,8.60
2018-05-29T02:21:17.728Z,8.00
2018-05-29T02:23:45.992Z,8.67
2018-05-29T02:26:14.249Z,7.70
2018-05-29T02:28:42.505Z,9.37
2018-05-29T02:31:10.791Z,9.83
2018-05-29T02:33:39.036Z,8.50
2018-05-29T02:36:07.301Z,10.60
2018-05-29T02:38:36.328Z,7.57
2018-05-29T02:41:04.584Z,7.93
2018-05-29T02:43:32.831Z,8.30
2018-05-29T02:46:01.103Z,8.43
2018-05-29T02:48:29.357Z,7.60
2018-05-29T02:50:57.625Z,9.00
2018-05-29T02:53:25.939Z,8.13
2018-05-29T02:55:54.193Z,9.57
2018-05-29T02:58:22.445Z,8.97
2018-05-29T03:00:50.716Z,9.30
2018-05-29T03:03:18.981Z,11.60
2018-05-29T03:05:47.237Z,9.87
2018-05-29T03:08:16.301Z,8.07
2018-05-29T03:10:44.556Z,8.77
2018-05-29T03:13:12.805Z,8.50
2018-05-29T03:15:41.109Z,9.30
2018-05-29T03:18:09.353Z,8.23
2018-05-29T03:20:37.609Z,8.37
2018-05-29T03:23:06.648Z,8.63
2018-05-29T03:25:34.896Z,8.03
2018-05-29T03:28:03.158Z,9.13
2018-05-29T03:30:32.193Z,8.70
2018-05-29T03:33:00.469Z,8.67
2018-05-29T03:35:28.725Z,9.40
2018-05-29T03:37:56.989Z,8.70
2018-05-29T03:40:25.254Z,10.60
2018-05-29T03:42:54.285Z,9.30
2018-05-29T03:45:22.552Z,8.50
2018-05-29T03:47:50.824Z,9.10
2018-05-29T03:50:19.822Z,9.17
2018-05-29T03:52:48.090Z,8.30
2018-05-29T03:55:16.348Z,8.40
2018-05-29T03:57:45.361Z,8.77
2018-05-29T04:00:13.652Z,7.77
2018-05-29T04:02:41.909Z,8.07
2018-05-29T04:05:10.152Z,7.97
2018-05-29T04:07:39.173Z,8.40
2018-05-29T04:10:07.446Z,8.80
2018-05-29T04:12:35.708Z,8.43
2018-05-29T04:15:04.746Z,8.90
2018-05-29T04:17:33.010Z,9.50
2018-05-29T04:20:01.274Z,10.43
2018-05-29T04:22:29.549Z,8.27
2018-05-29T04:24:57.801Z,9.93
2018-05-29T04:27:26.821Z,8.13
2018-05-29T04:29:55.096Z,7.80
2018-05-29T04:32:23.341Z,8.40
2018-05-29T04:34:52.385Z,10.20
2018-05-29T04:37:20.657Z,8.20
2018-05-29T04:39:48.928Z,8.80
2018-05-29T04:42:17.185Z,10.57
2018-05-29T04:44:45.461Z,8.83
2018-05-29T04:47:13.712Z,9.40
2018-05-29T04:49:42.736Z,9.90
2018-05-29T04:52:11.002Z,8.40
2018-05-29T04:54:40.017Z,8.83
2018-05-29T04:57:08.269Z,8.53
2018-05-29T04:59:37.339Z,9.47
2018-05-29T05:02:05.596Z,10.70
2018-05-29T05:04:33.870Z,9.10
2018-05-29T05:07:02.142Z,8.57
2018-05-29T05:09:30.398Z,8.20
2018-05-29T05:11:58.645Z,10.47
2018-05-29T05:14:27.688Z,8.17
2018-05-29T05:16:55.950Z,7.80
2018-05-29T05:19:24.227Z,8.20
2018-05-29T05:21:52.498Z,7.67
2018-05-29T05:24:20.760Z,10.13
2018-05-29T05:26:49.101Z,9.03
2018-05-29T05:29:17.384Z,8.30
2018-05-29T05:31:46.403Z,7.67
2018-05-29T05:34:14.689Z,7.63
2018-05-29T05:36:42.948Z,8.37
2018-05-29T05:39:11.972Z,7.33
2018-05-29T05:41:40.335Z,7.20
2018-05-29T05:44:08.604Z,6.40
2018-05-29T05:46:36.883Z,7.70
2018-05-29T05:49:05.169Z,8.27
2018-05-29T05:51:33.537Z,7.67
2018-05-29T05:54:01.788Z,8.80
2018-05-29T05:56:30.817Z,7.13
2018-05-29T05:58:59.081Z,8.00
2018-05-29T06:01:27.337Z,8.13
2018-05-29T06:03:56.436Z,9.40
2018-05-29T06:06:25.470Z,6.80
2018-05-29T06:08:53.725Z,6.97
2018-05-29T06:11:21.977Z,7.30
2018-05-29T06:13:51.012Z,6.07
2018-05-29T06:16:19.320Z,7.20
2018-05-29T06:18:47.529Z,6.40
2018-05-29T06:21:16.556Z,6.00
2018-05-29T06:23:44.808Z,5.57
2018-05-29T06:26:13.830Z,5.90
2018-05-29T06:28:42.108Z,6.37
2018-05-29T06:31:10.363Z,6.83
2018-05-29T06:33:38.616Z,7.07
2018-05-29T06:36:07.680Z,6.40
2018-05-29T06:38:35.971Z,6.67
2018-05-29T06:41:04.201Z,6.50
2018-05-29T06:43:32.469Z,6.93
2018-05-29T06:46:00.740Z,6.70
2018-05-29T06:48:28.981Z,6.63
2018-05-29T06:50:58.021Z,6.57
2018-05-29T06:53:26.273Z,6.57
2018-05-29T06:55:54.528Z,5.80
2018-05-29T06:58:23.557Z,6.93
2018-05-29T07:00:51.829Z,5.93
2018-05-29T07:03:20.069Z,6.33
2018-05-29T07:05:48.341Z,6.43
2018-05-29T07:08:16.604Z,5.90
2018-05-29T07:10:44.853Z,6.10
2018-05-29T07:13:13.124Z,6.20
2018-05-29T07:15:41.465Z,6.00
2018-05-29T07:18:10.520Z,6.20
2018-05-29T07:20:38.793Z,5.47
2018-05-29T07:23:07.057Z,5.60
2018-05-29T07:25:35.324Z,5.57
2018-05-29T07:28:03.586Z,5.57
2018-05-29T07:30:31.844Z,6.87
2018-05-29T07:33:00.873Z,5.97
2018-05-29T07:35:29.144Z,6.27
2018-05-29T07:37:57.395Z,5.67
2018-05-29T07:40:26.421Z,6.00
2018-05-29T07:42:54.710Z,5.63
2018-05-29T07:45:22.973Z,6.43
2018-05-29T07:47:51.305Z,5.50
2018-05-29T07:50:20.337Z,5.40
2018-05-29T07:52:48.637Z,6.10
2018-05-29T07:55:16.889Z,5.60
2018-05-29T07:57:45.165Z,5.03
2018-05-29T08:00:13.441Z,5.73
2018-05-29T08:02:41.708Z,6.23
2018-05-29T08:05:09.984Z,6.03
2018-05-29T08:07:38.244Z,4.93
2018-05-29T08:10:07.265Z,5.90
2018-05-29T08:12:35.525Z,6.67
2018-05-29T08:15:03.781Z,5.80
2018-05-29T08:17:32.789Z,5.43
2018-05-29T08:20:01.064Z,5.73
2018-05-29T08:22:30.069Z,6.10
2018-05-29T08:24:58.325Z,5.13
2018-05-29T08:27:27.362Z,6.50
2018-05-29T08:29:55.623Z,6.10
2018-05-29T08:32:23.880Z,5.33
2018-05-29T08:34:52.146Z,6.50
2018-05-29T08:37:21.156Z,5.60
2018-05-29T08:39:49.412Z,5.37
2018-05-29T08:42:18.456Z,6.43
2018-05-29T08:44:46.709Z,6.50
2018-05-29T08:47:14.974Z,6.73
2018-05-29T08:49:43.253Z,6.37
2018-05-29T08:52:12.265Z,6.03
2018-05-29T08:54:40.533Z,6.63
2018-05-29T08:57:08.798Z,6.03
2018-05-29T08:59:37.074Z,5.87
2018-05-29T09:02:05.329Z,5.73
2018-05-29T09:04:34.364Z,6.30
2018-05-29T09:07:02.628Z,5.90
2018-05-29T09:09:30.885Z,6.30
2018-05-29T09:11:59.927Z,5.70
2018-05-29T09:14:28.181Z,6.27
2018-05-29T09:16:56.423Z,5.20
2018-05-29T09:19:25.462Z,5.50
2018-05-29T09:21:53.711Z,6.20
2018-05-29T09:24:21.974Z,6.20
2018-05-29T09:26:51.004Z,6.87
2018-05-29T09:29:19.275Z,6.43
2018-05-29T09:31:47.522Z,6.60
2018-05-29T09:34:16.548Z,5.80
2018-05-29T09:36:44.799Z,5.23
2018-05-29T09:39:13.053Z,6.10
2018-05-29T09:41:41.353Z,7.10
2018-05-29T09:44:09.607Z,5.97
2018-05-29T09:46:38.723Z,5.70
2018-05-29T09:49:07.745Z,6.10
2018-05-29T09:51:35.995Z,6.33
2018-05-29T09:54:04.247Z,6.20
2018-05-29T09:56:32.523Z,6.40
2018-05-29T09:59:01.554Z,5.90
2018-05-29T10:01:29.807Z,11.90
2018-05-29T10:03:58.858Z,5.90
2018-05-29T10:06:27.139Z,5.73
2018-05-29T10:08:55.389Z,6.00
2018-05-29T10:11:23.697Z,6.50
2018-05-29T10:13:51.936Z,5.77
2018-05-29T10:16:20.216Z,6.17
2018-05-29T10:18:48.560Z,5.90
2018-05-29T10:21:17.590Z,6.50
2018-05-29T10:23:45.841Z,6.40
2018-05-29T10:26:14.112Z,6.30
2018-05-29T10:28:42.385Z,5.80
2018-05-29T10:31:11.393Z,6.40
2018-05-29T10:33:39.676Z,5.77
2018-05-29T10:36:07.949Z,6.00
2018-05-29T10:38:36.209Z,6.57
2018-05-29T10:41:05.249Z,6.30
2018-05-29T10:43:33.504Z,6.33
2018-05-29T10:46:01.796Z,6.43
2018-05-29T10:48:30.033Z,6.47
2018-05-29T10:50:58.300Z,6.00
2018-05-29T10:53:27.330Z,6.00
2018-05-29T10:55:55.609Z,6.77
2018-05-29T10:58:23.900Z,6.07
2018-05-29T11:00:52.153Z,5.93
2018-05-29T11:03:20.426Z,5.93
2018-05-29T11:05:48.716Z,5.70
2018-05-29T11:08:16.972Z,6.27
2018-05-29T11:10:45.249Z,6.23
2018-05-29T11:13:13.557Z,5.73
2018-05-29T11:15:41.813Z,6.17
2018-05-29T11:18:10.080Z,5.97
2018-05-29T11:20:38.338Z,5.87
2018-05-29T11:23:06.605Z,5.57
2018-05-29T11:25:35.649Z,5.37
2018-05-29T11:28:03.889Z,6.27
2018-05-29T11:30:32.148Z,5.60
2018-05-29T11:33:01.176Z,6.13
2018-05-29T11:35:29.435Z,6.47
2018-05-29T11:37:57.693Z,5.90
2018-05-29T11:40:25.999Z,6.20
2018-05-29T11:42:54.240Z,6.23
2018-05-29T11:45:23.271Z,5.67
2018-05-29T11:47:51.536Z,6.10
2018-05-29T11:50:19.793Z,6.00
2018-05-29T11:52:48.811Z,6.00
2018-05-29T11:55:17.089Z,5.50
2018-05-29T11:57:45.332Z,6.70
2018-05-29T12:00:14.357Z,7.53
2018-05-29T12:02:42.638Z,6.00
2018-05-29T12:05:10.896Z,5.50
2018-05-29T12:07:39.971Z,6.00
2018-05-29T12:10:08.185Z,5.60
2018-05-29T12:12:36.446Z,5.67
2018-05-29T12:15:04.704Z,6.03
2018-05-29T12:17:33.756Z,5.80
2018-05-29T12:20:02.779Z,5.10
2018-05-29T12:22:31.048Z,5.60
2018-05-29T12:24:59.333Z,5.47
2018-05-29T12:27:27.629Z,5.50
2018-05-29T12:29:56.656Z,5.90
2018-05-29T12:32:24.918Z,5.20
2018-05-29T12:34:53.173Z,5.60
2018-05-29T12:37:22.187Z,5.83
2018-05-29T12:39:50.453Z,5.50
2018-05-29T12:42:19.471Z,5.20
2018-05-29T12:44:47.724Z,5.37
2018-05-29T12:47:15.994Z,5.40
2018-05-29T12:49:45.018Z,4.90
2018-05-29T12:52:13.268Z,5.00
2018-05-29T12:54:41.540Z,5.07
2018-05-29T12:57:10.565Z,5.53
2018-05-29T12:59:38.820Z,4.57
2018-05-29T13:02:07.077Z,4.77
2018-05-29T13:04:36.094Z,5.20
2018-05-29T13:07:04.337Z,5.00
2018-05-29T13:09:32.623Z,4.90
2018-05-29T13:12:01.633Z,5.27
2018-05-29T13:14:29.889Z,4.70
2018-05-29T13:16:58.924Z,4.90
2018-05-29T13:19:27.183Z,4.60
2018-05-29T13:21:55.438Z,5.20
2018-05-29T13:24:24.474Z,5.00
2018-05-29T13:26:52.721Z,4.53
2018-05-29T13:29:21.760Z,5.20
2018-05-29T13:31:50.013Z,4.90
2018-05-29T13:34:18.263Z,4.40
2018-05-29T13:36:47.309Z,4.30
2018-05-29T13:39:15.592Z,4.20
2018-05-29T13:41:43.843Z,5.07
2018-05-29T13:44:12.133Z,5.37
2018-05-29T13:46:40.389Z,5.47
2018-05-29T13:49:08.667Z,5.60
2018-05-29T13:51:36.941Z,5.23
2018-05-29T13:54:05.205Z,4.93
2018-05-29T13:56:33.496Z,5.10
2018-05-29T13:59:01.712Z,5.47
2018-05-29T14:01:29.969Z,4.70
2018-05-29T14:03:58.220Z,5.17
2018-05-29T14:06:26.481Z,4.77
2018-05-29T14:08:54.784Z,5.10
2018-05-29T14:11:23.766Z,5.30
2018-05-29T14:13:52.055Z,6.50
2018-05-29T14:16:20.301Z,5.80
2018-05-29T14:18:49.789Z,5.37
2018-05-29T14:21:18.900Z,6.30
2018-05-29T14:23:47.169Z,6.30
2018-05-29T14:26:16.285Z,5.87
2018-05-29T14:28:44.553Z,6.00
2018-05-29T14:31:12.812Z,6.40
2018-05-29T14:33:41.860Z,6.10
2018-05-29T14:36:10.182Z,7.77
2018-05-29T14:38:39.284Z,7.33
2018-05-29T14:41:08.344Z,6.43
2018-05-29T14:43:36.664Z,6.07
2018-05-29T14:46:04.983Z,5.60
2018-05-29T14:48:33.307Z,5.60
2018-05-29T14:51:01.745Z,5.87
2018-05-29T14:53:30.062Z,5.63
2018-05-29T14:55:58.355Z,5.83
2018-05-29T14:58:26.680Z,4.80
2018-05-29T15:00:55.001Z,4.20
2018-05-29T15:03:23.330Z,5.03
2018-05-29T15:05:51.673Z,3.90
2018-05-29T15:08:19.998Z,4.60
2018-05-29T15:10:48.346Z,4.57
2018-05-29T15:13:16.680Z,4.33
2018-05-29T15:15:45.744Z,4.23
2018-05-29T15:18:14.077Z,4.67
2018-05-29T15:20:42.424Z,5.20
2018-05-29T15:23:11.517Z,4.27
2018-05-29T15:25:40.613Z,5.00
2018-05-29T15:28:09.712Z,4.30
2018-05-29T15:30:38.765Z,3.30
2018-05-29T15:33:07.085Z,3.33
2018-05-29T15:35:36.216Z,3.90
2018-05-29T15:38:04.523Z,3.70
2018-05-29T15:40:32.858Z,4.73
2018-05-29T15:43:01.179Z,5.07
2018-05-29T15:45:29.493Z,5.00
2018-05-29T15:47:58.580Z,4.40
2018-05-29T15:50:27.684Z,4.03
2018-05-29T15:52:56.759Z,5.00
2018-05-29T15:55:25.881Z,4.37
2018-05-29T15:57:54.977Z,4.03
2018-05-29T16:00:24.062Z,4.70
2018-05-29T16:02:53.164Z,3.80
2018-05-29T16:05:21.498Z,4.50
2018-05-29T16:07:49.808Z,4.90
2018-05-29T16:10:18.882Z,3.78
2018-05-29T16:12:47.189Z,5.93
2018-05-29T16:15:16.239Z,4.40
2018-05-29T16:17:44.546Z,4.03
2018-05-29T16:20:13.654Z,4.10
2018-05-29T16:22:42.738Z,4.00
2018-05-29T16:25:11.831Z,4.93
2018-05-29T16:27:40.126Z,4.97
2018-05-29T16:30:08.451Z,3.97
2018-05-29T16:32:36.750Z,3.83
2018-05-29T16:35:05.101Z,3.80
2018-05-29T16:37:33.492Z,3.87
2018-05-29T16:40:01.813Z,3.67
2018-05-29T16:42:30.902Z,5.27
2018-05-29T16:44:59.971Z,4.40
2018-05-29T16:47:28.275Z,4.13
2018-05-29T16:49:57.351Z,5.43
2018-05-29T16:52:25.670Z,4.70
2018-05-29T16:54:53.981Z,5.30
2018-05-29T16:57:22.320Z,4.70
2018-05-29T16:59:50.685Z,4.43
2018-05-29T17:02:19.112Z,3.90
2018-05-29T17:04:47.511Z,17.00
2018-05-29T17:07:15.830Z,5.97
2018-05-29T17:09:44.163Z,6.33
2018-05-29T17:12:12.450Z,4.57
2018-05-29T17:14:40.709Z,4.50
2018-05-29T17:17:08.972Z,5.10
2018-05-29T17:19:37.242Z,4.13
2018-05-29T17:22:05.530Z,4.00
2018-05-29T17:24:33.792Z,4.27
2018-05-29T17:27:02.438Z,4.33
2018-05-29T17:29:31.191Z,4.10
2018-05-29T17:31:59.818Z,4.67
2018-05-29T17:34:28.922Z,5.90
2018-05-29T17:36:57.908Z,4.47
2018-05-29T17:39:26.837Z,4.97
2018-05-29T17:41:57.742Z,4.23
2018-05-29T17:44:26.977Z,4.20
2018-05-29T17:46:56.313Z,4.70
2018-05-29T17:49:25.650Z,4.87
2018-05-29T17:51:55.801Z,4.57
2018-05-29T17:54:25.103Z,5.57
2018-05-29T17:56:54.344Z,5.37
2018-05-29T17:59:23.658Z,4.73
2018-05-29T18:01:52.868Z,6.03
2018-05-29T18:04:22.104Z,5.30
2018-05-29T18:06:51.466Z,6.20
2018-05-29T18:09:20.755Z,7.00
2018-05-29T18:11:50.162Z,7.40
2018-05-29T18:14:20.088Z,7.07
2018-05-29T18:16:50.220Z,7.70
2018-05-29T18:19:19.519Z,6.63
2018-05-29T18:21:48.795Z,7.27
2018-05-29T18:24:18.163Z,5.40
2018-05-29T18:26:47.404Z,6.00
2018-05-29T18:29:16.932Z,7.73
2018-05-29T18:31:47.668Z,7.77
2018-05-29T18:34:17.781Z,7.10
2018-05-29T18:36:48.011Z,6.80
2018-05-29T18:39:17.397Z,7.50
2018-05-29T18:41:46.744Z,7.40
2018-05-29T18:44:16.111Z,7.40
2018-05-29T18:46:45.512Z,5.80
2018-05-29T18:49:15.720Z,6.07
2018-05-29T18:51:46.687Z,5.73
2018-05-29T18:54:16.057Z,4.90
2018-05-29T18:56:46.116Z,4.37
2018-05-29T18:59:15.590Z,5.33
2018-05-29T19:01:45.633Z,7.07
2018-05-29T19:04:15.015Z,5.83
2018-05-29T19:06:45.131Z,7.77
2018-05-29T19:09:15.612Z,7.73
2018-05-29T19:11:44.918Z,5.40
2018-05-29T19:14:14.289Z,5.53
2018-05-29T19:16:44.412Z,6.57
2018-05-29T19:19:13.760Z,5.93
2018-05-29T19:21:43.152Z,6.07
2018-05-29T19:24:12.455Z,4.57
2018-05-29T19:26:41.802Z,4.77
2018-05-29T19:29:11.161Z,5.87
2018-05-29T19:31:40.438Z,5.60
2018-05-29T19:34:10.025Z,6.10
2018-05-29T19:36:39.454Z,5.43
2018-05-29T19:39:08.960Z,6.33
2018-05-29T19:41:38.522Z,6.30
2018-05-29T19:44:08.003Z,5.90
2018-05-29T19:46:38.278Z,6.87
2018-05-29T19:49:07.807Z,6.83
2018-05-29T19:51:37.143Z,5.77
2018-05-29T19:54:07.293Z,6.40
2018-05-29T19:56:36.569Z,5.90
2018-05-29T19:59:05.999Z,6.30
2018-05-29T20:01:35.391Z,5.97
2018-05-29T20:04:04.782Z,6.30
2018-05-29T20:06:34.956Z,6.50
2018-05-29T20:09:04.449Z,6.10
2018-05-29T20:11:33.807Z,5.60
2018-05-29T20:14:04.042Z,4.70
2018-05-29T20:16:33.570Z,5.13
2018-05-29T20:19:02.846Z,5.53
2018-05-29T20:21:32.167Z,5.03
2018-05-29T20:24:01.478Z,5.40
2018-05-29T20:26:30.819Z,5.53
2018-05-29T20:29:00.234Z,6.03
2018-05-29T20:31:30.322Z,6.00
2018-05-29T20:33:59.774Z,7.07
2018-05-29T20:36:29.109Z,5.53
2018-05-29T20:38:58.449Z,5.67
2018-05-29T20:41:27.869Z,6.67
2018-05-29T20:43:57.201Z,5.43
2018-05-29T20:46:26.453Z,5.20
2018-05-29T20:48:56.705Z,5.70
2018-05-29T20:51:25.994Z,6.57
2018-05-29T20:53:56.104Z,7.13
2018-05-29T20:56:25.894Z,6.90
2018-05-29T20:58:55.203Z,6.57
2018-05-29T21:01:24.535Z,5.50
2018-05-29T21:03:53.737Z,6.00
2018-05-29T21:06:23.549Z,6.33
2018-05-29T21:08:52.712Z,4.97
2018-05-29T21:11:21.757Z,6.30
2018-05-29T21:13:52.317Z,5.70
2018-05-29T21:16:20.671Z,7.90
2018-05-29T21:18:48.962Z,5.40
2018-05-29T21:21:17.341Z,5.50
2018-05-29T21:23:45.592Z,5.20
2018-05-29T21:26:13.853Z,6.93
2018-05-29T21:28:42.117Z,6.40
2018-05-29T21:31:10.376Z,7.80
2018-05-29T21:33:38.632Z,7.10
2018-05-29T21:36:07.674Z,6.83
2018-05-29T21:38:35.947Z,5.80
2018-05-29T21:41:04.200Z,7.18
2018-05-29T21:43:32.468Z,5.70
2018-05-29T21:46:01.494Z,7.60
2018-05-29T21:48:29.742Z,6.37
2018-05-29T21:50:58.061Z,5.57
2018-05-29T21:53:26.317Z,5.43
2018-05-29T21:55:54.568Z,4.90
2018-05-29T21:58:23.615Z,6.40
2018-05-29T22:00:52.636Z,6.60
2018-05-29T22:03:20.920Z,4.93
2018-05-29T22:05:50.101Z,4.43
2018-05-29T22:08:18.349Z,4.50
2018-05-29T22:10:46.603Z,6.00
2018-05-29T22:13:14.870Z,6.00
2018-05-29T22:15:43.136Z,4.62
2018-05-29T22:18:12.149Z,4.63
2018-05-29T22:20:40.452Z,4.50
2018-05-29T22:23:09.483Z,4.53
2018-05-29T22:25:37.793Z,5.00
2018-05-29T22:28:06.181Z,5.67
2018-05-29T22:30:34.479Z,5.10
2018-05-29T22:33:02.742Z,4.83
2018-05-29T22:35:31.009Z,6.37
2018-05-29T22:38:00.069Z,8.27
2018-05-29T22:40:29.098Z,9.37
2018-05-29T22:42:57.384Z,6.47
2018-05-29T22:45:25.655Z,6.07
2018-05-29T22:47:54.100Z,5.80
2018-05-29T22:50:22.405Z,4.83
2018-05-29T22:52:50.924Z,4.97
2018-05-29T22:55:19.222Z,5.27
2018-05-29T22:57:47.496Z,6.40
2018-05-29T23:00:15.753Z,5.17
2018-05-29T23:02:44.793Z,5.20
2018-05-29T23:05:13.084Z,4.80
2018-05-29T23:07:41.353Z,5.77
2018-05-29T23:10:09.639Z,6.07
2018-05-29T23:12:37.941Z,5.60
2018-05-29T23:15:06.206Z,5.37
2018-05-29T23:17:34.533Z,4.60
2018-05-29T23:20:03.572Z,4.77
2018-05-29T23:22:31.828Z,6.03
2018-05-29T23:25:00.089Z,5.07
2018-05-29T23:27:29.158Z,5.60
2018-05-29T23:29:57.561Z,4.78
2018-05-29T23:32:26.745Z,5.70
2018-05-29T23:34:55.794Z,5.10
2018-05-29T23:37:24.082Z,5.50
2018-05-29T23:39:52.389Z,4.70
2018-05-29T23:42:21.441Z,4.50
2018-05-29T23:44:49.708Z,4.83
2018-05-29T23:47:17.987Z,3.80
2018-05-29T23:49:46.296Z,5.40
2018-05-29T23:52:14.681Z,4.60
2018-05-29T23:54:42.989Z,4.27
2018-05-29T23:57:11.305Z,4.73
2018-05-29T23:59:39.574Z,3.43
